createdAt,value
2019-03-13T00:01:49.257Z,49.60
2019-03-13T00:04:19.805Z,49.90
2019-03-13T00:06:50.960Z,50.30
2019-03-13T00:09:21.605Z,50.30
2019-03-13T00:11:52.656Z,49.80
2019-03-13T00:14:23.537Z,48.00
2019-03-13T00:16:54.306Z,49.20
2019-03-13T00:19:25.015Z,49.20
2019-03-13T00:21:55.725Z,49.90
2019-03-13T00:24:26.634Z,49.60
2019-03-13T00:26:57.241Z,49.00
2019-03-13T00:29:27.986Z,49.80
2019-03-13T00:31:59.722Z,49.20
2019-03-13T00:34:31.265Z,49.10
2019-03-13T00:37:02.954Z,49.30
2019-03-13T00:39:33.417Z,48.80
2019-03-13T00:42:03.927Z,48.50
2019-03-13T00:44:34.796Z,48.90
2019-03-13T00:47:05.390Z,48.50
2019-03-13T00:49:35.934Z,48.70
2019-03-13T00:52:07.042Z,47.90
2019-03-13T00:54:38.255Z,48.00
2019-03-13T00:57:08.742Z,47.60
2019-03-13T00:59:40.435Z,46.60
2019-03-13T01:02:18.783Z,48.40
2019-03-13T01:04:59.737Z,49.40
2019-03-13T01:07:30.722Z,50.00
2019-03-13T01:10:03.043Z,50.50
2019-03-13T01:12:33.684Z,51.40
2019-03-13T01:15:04.842Z,51.70
2019-03-13T01:17:38.684Z,51.40
2019-03-13T01:20:08.652Z,52.30
2019-03-13T01:22:39.279Z,52.30
2019-03-13T01:25:10.958Z,51.00
2019-03-13T01:27:41.842Z,50.70
2019-03-13T01:30:13.745Z,50.10
2019-03-13T01:32:53.193Z,49.20
2019-03-13T01:35:27.958Z,49.30
2019-03-13T01:37:59.343Z,49.30
2019-03-13T01:40:29.931Z,47.60
2019-03-13T01:43:01.131Z,48.70
2019-03-13T01:45:32.146Z,49.60
2019-03-13T01:48:03.593Z,47.60
2019-03-13T01:50:34.157Z,47.50
2019-03-13T01:53:05.268Z,45.70
2019-03-13T01:55:35.786Z,47.60
2019-03-13T01:58:06.884Z,46.40
2019-03-13T02:00:37.473Z,46.40
2019-03-13T02:03:08.192Z,46.50
2019-03-13T02:05:39.150Z,45.20
2019-03-13T02:08:09.718Z,46.20
2019-03-13T02:10:40.639Z,45.10
2019-03-13T02:13:11.164Z,45.10
2019-03-13T02:15:42.197Z,46.70
2019-03-13T02:18:12.835Z,47.30
2019-03-13T02:20:43.736Z,47.50
2019-03-13T02:23:14.686Z,47.70
2019-03-13T02:25:45.643Z,48.00
2019-03-13T02:28:16.217Z,47.90
2019-03-13T02:30:46.886Z,48.40
2019-03-13T02:33:17.611Z,48.60
2019-03-13T02:35:49.057Z,49.80
2019-03-13T02:38:19.767Z,49.40
2019-03-13T02:40:50.642Z,50.20
2019-03-13T02:43:21.278Z,50.90
2019-03-13T02:45:51.941Z,51.20
2019-03-13T02:48:23.108Z,50.90
2019-03-13T02:50:53.872Z,50.70
2019-03-13T02:53:24.615Z,49.00
2019-03-13T02:55:55.816Z,48.30
2019-03-13T02:58:26.456Z,49.90
2019-03-13T03:01:16.848Z,49.70
2019-03-13T03:03:51.114Z,48.50
2019-03-13T03:06:21.978Z,52.00
2019-03-13T03:08:52.718Z,51.90
2019-03-13T03:11:23.660Z,51.20
2019-03-13T03:13:54.559Z,51.80
2019-03-13T03:16:25.527Z,50.40
2019-03-13T03:18:56.092Z,49.60
2019-03-13T03:21:26.796Z,49.80
2019-03-13T03:23:57.572Z,50.50
2019-03-13T03:26:28.149Z,51.60
2019-03-13T03:28:59.063Z,50.40
2019-03-13T03:31:30.162Z,51.40
2019-03-13T03:34:01.967Z,51.30
2019-03-13T03:36:32.820Z,53.30
2019-03-13T03:39:05.023Z,52.00
2019-03-13T03:41:35.783Z,52.40
2019-03-13T03:44:06.528Z,51.80
2019-03-13T03:46:37.453Z,51.80
2019-03-13T03:49:07.943Z,52.80
2019-03-13T03:51:38.746Z,52.30
2019-03-13T03:54:09.255Z,54.00
2019-03-13T03:56:40.121Z,52.10
2019-03-13T03:59:10.699Z,50.60
2019-03-13T04:01:41.239Z,50.40
2019-03-13T04:04:11.971Z,53.40
2019-03-13T04:06:42.640Z,54.40
2019-03-13T04:09:13.365Z,53.10
2019-03-13T04:11:44.973Z,50.70
2019-03-13T04:14:16.249Z,53.90
2019-03-13T04:16:48.041Z,52.20
2019-03-13T04:19:21.749Z,50.30
2019-03-13T04:21:52.354Z,54.20
2019-03-13T04:24:22.895Z,54.10
2019-03-13T04:26:53.575Z,54.20
2019-03-13T04:29:24.192Z,53.70
2019-03-13T04:31:54.735Z,53.60
2019-03-13T04:34:25.583Z,52.60
2019-03-13T04:36:56.564Z,53.00
2019-03-13T04:39:27.495Z,53.10
2019-03-13T04:41:58.206Z,52.30
2019-03-13T04:44:29.080Z,51.30
2019-03-13T04:46:59.854Z,50.70
2019-03-13T04:49:32.118Z,50.80
2019-03-13T04:52:03.438Z,52.00
2019-03-13T04:54:33.988Z,51.40
2019-03-13T04:57:04.951Z,51.50
2019-03-13T04:59:35.543Z,52.10
2019-03-13T05:02:06.469Z,53.20
2019-03-13T05:04:37.040Z,53.40
2019-03-13T05:07:07.646Z,51.50
2019-03-13T05:09:40.257Z,53.20
2019-03-13T05:12:10.979Z,53.30
2019-03-13T05:14:41.610Z,54.00
2019-03-13T05:17:12.531Z,53.10
2019-03-13T05:19:43.699Z,54.30
2019-03-13T05:22:14.247Z,53.70
2019-03-13T05:24:44.944Z,53.80
2019-03-13T05:27:15.507Z,54.70
2019-03-13T05:29:46.336Z,54.30
2019-03-13T05:32:16.927Z,53.60
2019-03-13T05:34:48.099Z,54.20
2019-03-13T05:37:19.623Z,55.20
2019-03-13T05:39:50.147Z,54.40
2019-03-13T05:42:21.292Z,53.60
2019-03-13T05:44:51.869Z,54.40
2019-03-13T05:47:22.803Z,53.70
2019-03-13T05:49:53.494Z,54.30
2019-03-13T05:52:24.108Z,55.00
2019-03-13T05:54:54.826Z,54.90
2019-03-13T05:57:25.926Z,56.80
2019-03-13T05:59:56.473Z,56.20
2019-03-13T06:02:26.967Z,55.10
2019-03-13T06:04:57.725Z,57.80
2019-03-13T06:07:28.275Z,58.20
2019-03-13T06:09:59.156Z,57.90
2019-03-13T06:12:30.642Z,56.90
2019-03-13T06:15:03.641Z,57.50
2019-03-13T06:17:34.281Z,57.10
2019-03-13T06:20:05.563Z,59.00
2019-03-13T06:22:36.071Z,57.80
2019-03-13T06:25:07.342Z,58.20
2019-03-13T06:27:38.387Z,58.50
2019-03-13T06:30:10.307Z,58.50
2019-03-13T06:32:41.490Z,58.20
2019-03-13T06:35:12.404Z,58.60
2019-03-13T06:37:43.656Z,58.10
2019-03-13T06:40:20.251Z,58.20
2019-03-13T06:42:57.432Z,56.90
2019-03-13T06:45:28.713Z,57.70
2019-03-13T06:47:59.548Z,58.50
2019-03-13T06:50:30.378Z,57.40
2019-03-13T06:53:01.649Z,56.50
2019-03-13T06:55:32.273Z,57.10
2019-03-13T06:58:02.799Z,56.90
2019-03-13T07:00:55.454Z,57.00
2019-03-13T07:03:56.820Z,56.90
2019-03-13T07:06:35.367Z,56.70
2019-03-13T07:09:24.341Z,56.40
2019-03-13T07:12:19.353Z,56.70
2019-03-13T07:15:28.199Z,56.40
2019-03-13T07:18:30.790Z,55.40
2019-03-13T07:21:24.052Z,55.30
2019-03-13T07:24:04.090Z,54.10
2019-03-13T07:26:42.517Z,53.80
2019-03-13T07:29:26.463Z,53.90
2019-03-13T07:32:31.710Z,51.80
2019-03-13T07:35:30.073Z,52.40
2019-03-13T07:38:28.082Z,52.90
2019-03-13T07:41:09.061Z,52.10
2019-03-13T07:44:01.934Z,52.60
2019-03-13T07:46:49.972Z,52.90
2019-03-13T07:49:38.839Z,52.60
2019-03-13T07:52:29.045Z,53.30
2019-03-13T07:55:29.746Z,53.50
2019-03-13T07:58:28.288Z,53.10
2019-03-13T08:01:18.129Z,53.10
2019-03-13T08:04:10.160Z,52.70
2019-03-13T08:07:12.071Z,51.10
2019-03-13T08:10:05.583Z,51.10
2019-03-13T08:12:53.832Z,49.60
2019-03-13T08:16:00.018Z,48.90
2019-03-13T08:18:50.803Z,47.90
2019-03-13T08:21:40.747Z,47.40
2019-03-13T08:24:43.996Z,46.50
2019-03-13T08:27:51.974Z,47.80
2019-03-13T08:30:44.323Z,47.60
2019-03-13T08:33:34.811Z,47.70
2019-03-13T08:36:28.722Z,47.80
2019-03-13T08:39:20.953Z,47.90
2019-03-13T08:42:16.608Z,48.10
2019-03-13T08:45:06.603Z,48.10
2019-03-13T08:47:51.625Z,47.60
2019-03-13T08:50:44.165Z,47.30
2019-03-13T08:53:33.845Z,47.00
2019-03-13T08:56:13.845Z,46.70
2019-03-13T08:59:03.614Z,46.80
2019-03-13T09:02:01.774Z,46.40
2019-03-13T09:04:51.864Z,45.90
2019-03-13T09:07:50.732Z,46.10
2019-03-13T09:11:03.861Z,45.80
2019-03-13T09:13:47.018Z,45.20
2019-03-13T09:16:22.849Z,44.50
2019-03-13T09:19:11.285Z,44.80
2019-03-13T09:22:16.352Z,45.30
2019-03-13T09:25:11.737Z,44.80
2019-03-13T09:27:56.218Z,44.50
2019-03-13T09:31:01.052Z,44.40
2019-03-13T09:33:54.102Z,44.50
2019-03-13T09:36:47.020Z,45.40
2019-03-13T09:39:48.756Z,45.30
2019-03-13T09:42:37.187Z,45.20
2019-03-13T09:45:41.713Z,42.80
2019-03-13T09:48:39.211Z,44.00
2019-03-13T09:51:17.911Z,44.30
2019-03-13T09:54:10.512Z,44.70
2019-03-13T09:57:09.357Z,44.90
2019-03-13T09:59:47.879Z,45.10
2019-03-13T10:02:56.377Z,44.60
2019-03-13T10:05:44.411Z,44.40
2019-03-13T10:08:35.454Z,44.60
2019-03-13T10:11:12.332Z,45.50
2019-03-13T10:13:55.885Z,45.40
2019-03-13T10:16:43.915Z,44.70
2019-03-13T10:19:32.445Z,44.30
2019-03-13T10:22:25.688Z,44.40
2019-03-13T10:25:06.876Z,43.60
2019-03-13T10:27:57.440Z,43.00
2019-03-13T10:30:40.849Z,42.90
2019-03-13T10:33:33.756Z,42.90
2019-03-13T10:36:38.104Z,42.80
2019-03-13T10:39:27.039Z,43.20
2019-03-13T10:42:22.880Z,42.10
2019-03-13T10:45:21.591Z,40.70
2019-03-13T10:48:06.359Z,39.80
2019-03-13T10:51:10.940Z,41.30
2019-03-13T10:54:00.369Z,42.60
2019-03-13T10:56:53.138Z,42.40
2019-03-13T10:59:44.290Z,44.20
2019-03-13T11:02:52.317Z,46.40
2019-03-13T11:05:31.734Z,48.10
2019-03-13T11:08:26.995Z,48.90
2019-03-13T11:11:04.499Z,50.00
2019-03-13T11:14:00.032Z,50.90
2019-03-13T11:16:52.809Z,51.50
2019-03-13T11:19:58.842Z,51.50
2019-03-13T11:22:56.728Z,51.70
2019-03-13T11:25:46.930Z,50.60
2019-03-13T11:28:32.639Z,50.30
2019-03-13T11:31:20.808Z,48.40
2019-03-13T11:34:10.865Z,47.40
2019-03-13T11:37:04.007Z,46.40
2019-03-13T11:39:46.868Z,44.80
2019-03-13T11:42:29.566Z,44.40
2019-03-13T11:45:22.121Z,44.30
2019-03-13T11:48:04.127Z,44.80
2019-03-13T11:50:59.324Z,46.10
2019-03-13T11:53:51.281Z,48.00
2019-03-13T11:56:43.857Z,48.10
2019-03-13T11:59:33.804Z,48.50
2019-03-13T12:02:23.383Z,50.00
2019-03-13T12:05:10.182Z,53.30
2019-03-13T12:07:59.965Z,54.00
2019-03-13T12:10:40.548Z,55.10
2019-03-13T12:13:24.926Z,54.50
2019-03-13T12:16:18.844Z,54.70
2019-03-13T12:19:06.551Z,52.80
2019-03-13T12:21:56.017Z,54.60
2019-03-13T12:24:43.966Z,54.10
2019-03-13T12:27:33.531Z,54.20
2019-03-13T12:30:22.257Z,53.60
2019-03-13T12:33:12.775Z,52.50
2019-03-13T12:36:01.213Z,52.40
2019-03-13T12:38:43.407Z,51.80
2019-03-13T12:41:38.792Z,50.80
2019-03-13T12:44:21.868Z,50.70
2019-03-13T12:47:20.568Z,50.30
2019-03-13T12:50:08.907Z,50.70
2019-03-13T12:53:04.720Z,50.20
2019-03-13T12:55:57.065Z,50.20
2019-03-13T12:58:42.948Z,48.40
2019-03-13T13:01:31.366Z,45.20
2019-03-13T13:04:33.641Z,43.00
2019-03-13T13:07:24.197Z,43.60
2019-03-13T13:10:22.820Z,44.00
2019-03-13T13:13:14.438Z,43.40
2019-03-13T13:16:07.343Z,42.50
2019-03-13T13:18:52.990Z,41.20
2019-03-13T13:21:41.591Z,40.70
2019-03-13T13:24:13.229Z,39.60
2019-03-13T13:26:43.724Z,40.30
2019-03-13T13:29:15.320Z,39.50
2019-03-13T13:31:46.112Z,39.50
2019-03-13T13:34:17.055Z,39.50
2019-03-13T13:36:47.577Z,39.00
2019-03-13T13:39:19.290Z,39.00
2019-03-13T13:41:53.484Z,38.80
2019-03-13T13:44:23.987Z,38.90
2019-03-13T13:46:54.587Z,37.60
2019-03-13T13:49:25.149Z,36.70
2019-03-13T13:51:55.953Z,36.10
2019-03-13T13:54:26.673Z,36.00
2019-03-13T13:56:57.272Z,36.40
2019-03-13T13:59:28.835Z,35.80
2019-03-13T14:01:59.948Z,35.60
2019-03-13T14:04:31.178Z,36.10
2019-03-13T14:07:01.622Z,35.50
2019-03-13T14:09:33.133Z,35.80
2019-03-13T14:12:04.143Z,35.40
2019-03-13T14:14:34.787Z,36.00
2019-03-13T14:17:07.131Z,36.10
2019-03-13T14:19:39.508Z,36.40
2019-03-13T14:22:19.810Z,36.40
2019-03-13T14:25:00.426Z,36.80
2019-03-13T14:27:45.479Z,36.80
2019-03-13T14:30:18.474Z,36.20
2019-03-13T14:32:51.464Z,36.20
2019-03-13T14:35:30.648Z,37.30
2019-03-13T14:38:03.951Z,37.00
2019-03-13T14:40:35.279Z,37.50
2019-03-13T14:43:18.274Z,37.30
2019-03-13T14:45:58.349Z,37.30
2019-03-13T14:48:33.362Z,37.60
2019-03-13T14:51:04.746Z,37.70
2019-03-13T14:53:35.618Z,37.70
2019-03-13T14:56:08.593Z,37.70
2019-03-13T14:58:39.270Z,37.80
2019-03-13T15:01:09.822Z,38.60
2019-03-13T15:03:42.071Z,38.40
2019-03-13T15:06:16.435Z,39.20
2019-03-13T15:08:47.197Z,39.30
2019-03-13T15:11:20.341Z,39.60
2019-03-13T15:13:52.455Z,39.60
2019-03-13T15:16:23.120Z,39.50
2019-03-13T15:18:54.468Z,40.00
2019-03-13T15:21:25.093Z,40.10
2019-03-13T15:23:56.271Z,39.50
2019-03-13T15:26:26.697Z,39.70
2019-03-13T15:29:02.103Z,39.70
2019-03-13T15:31:32.808Z,39.40
2019-03-13T15:34:13.035Z,40.30
2019-03-13T15:36:48.396Z,41.80
2019-03-13T15:39:19.440Z,43.60
2019-03-13T15:41:50.981Z,44.20
2019-03-13T15:44:21.886Z,44.50
2019-03-13T15:46:53.024Z,44.30
2019-03-13T15:49:29.706Z,44.80
2019-03-13T15:52:01.786Z,45.00
2019-03-13T15:54:35.020Z,44.50
2019-03-13T15:57:06.628Z,44.80
2019-03-13T15:59:37.663Z,45.20
2019-03-13T16:02:08.896Z,44.80
2019-03-13T16:04:39.632Z,44.40
2019-03-13T16:07:11.598Z,44.70
2019-03-13T16:09:42.545Z,44.10
2019-03-13T16:12:13.928Z,44.20
2019-03-13T16:14:45.941Z,45.30
2019-03-13T16:17:19.112Z,46.90
2019-03-13T16:19:50.760Z,47.10
2019-03-13T16:22:23.281Z,47.70
2019-03-13T16:24:59.395Z,47.90
2019-03-13T16:27:30.323Z,47.60
2019-03-13T16:30:02.251Z,47.60
2019-03-13T16:32:43.475Z,47.80
2019-03-13T16:35:06.593Z,48.20
2019-03-13T16:37:37.137Z,48.10
2019-03-13T16:40:09.643Z,47.70
2019-03-13T16:42:40.236Z,47.80
2019-03-13T16:45:18.091Z,48.20
2019-03-13T16:47:49.206Z,48.40
2019-03-13T16:50:20.650Z,48.80
2019-03-13T16:52:51.185Z,49.20
2019-03-13T16:55:22.365Z,49.00
2019-03-13T16:57:53.134Z,48.70
2019-03-13T17:00:24.873Z,48.90
2019-03-13T17:02:58.918Z,50.20
2019-03-13T17:05:30.300Z,51.90
2019-03-13T17:08:00.894Z,52.60
2019-03-13T17:10:31.840Z,53.30
2019-03-13T17:13:05.467Z,54.40
2019-03-13T17:15:37.043Z,54.10
2019-03-13T17:18:10.826Z,53.30
2019-03-13T17:20:41.507Z,52.80
2019-03-13T17:23:12.993Z,52.30
2019-03-13T17:25:43.623Z,52.00
2019-03-13T17:28:14.778Z,52.50
2019-03-13T17:30:45.559Z,52.30
2019-03-13T17:33:19.551Z,52.60
2019-03-13T17:35:50.493Z,52.50
2019-03-13T17:38:21.737Z,52.50
2019-03-13T17:40:55.934Z,52.50
2019-03-13T17:43:38.693Z,52.70
2019-03-13T17:46:06.876Z,52.50
2019-03-13T17:48:38.279Z,52.30
2019-03-13T17:51:18.843Z,52.90
2019-03-13T17:53:49.451Z,54.00
2019-03-13T17:56:23.482Z,53.80
2019-03-13T17:58:54.593Z,55.00
2019-03-13T18:01:25.357Z,54.40
2019-03-13T18:04:00.309Z,54.20
2019-03-13T18:06:31.764Z,54.80
2019-03-13T18:09:06.776Z,55.50
2019-03-13T18:11:38.674Z,54.60
2019-03-13T18:14:10.755Z,54.80
2019-03-13T18:16:43.652Z,55.00
2019-03-13T18:19:14.452Z,54.80
2019-03-13T18:21:46.996Z,55.10
2019-03-13T18:24:18.749Z,55.30
2019-03-13T18:26:49.293Z,55.30
2019-03-13T18:29:20.623Z,55.30
2019-03-13T18:31:51.220Z,55.50
2019-03-13T18:34:21.711Z,55.30
2019-03-13T18:36:54.936Z,55.90
2019-03-13T18:39:25.475Z,55.20
2019-03-13T18:41:56.144Z,55.60
2019-03-13T18:44:26.887Z,55.90
2019-03-13T18:46:57.833Z,56.40
2019-03-13T18:49:28.882Z,56.40
2019-03-13T18:51:59.763Z,56.10
2019-03-13T18:54:31.624Z,56.20
2019-03-13T18:57:03.011Z,56.30
2019-03-13T18:59:33.599Z,55.50
2019-03-13T19:02:04.695Z,56.00
2019-03-13T19:04:35.389Z,55.00
2019-03-13T19:07:07.401Z,54.90
2019-03-13T19:09:39.002Z,54.60
2019-03-13T19:12:11.902Z,54.90
2019-03-13T19:14:42.862Z,54.50
2019-03-13T19:17:13.788Z,54.70
2019-03-13T19:19:44.351Z,55.50
2019-03-13T19:22:15.892Z,54.60
2019-03-13T19:24:46.406Z,54.30
2019-03-13T19:27:16.949Z,54.20
2019-03-13T19:29:47.498Z,54.30
2019-03-13T19:32:18.566Z,54.30
2019-03-13T19:34:49.180Z,53.90
2019-03-13T19:37:21.336Z,54.80
2019-03-13T19:39:52.844Z,54.00
2019-03-13T19:42:26.517Z,54.00
2019-03-13T19:44:58.392Z,54.10
2019-03-13T19:47:29.404Z,53.80
2019-03-13T19:50:01.056Z,53.70
2019-03-13T19:52:32.661Z,53.90
2019-03-13T19:55:03.384Z,53.30
2019-03-13T19:57:33.931Z,53.20
2019-03-13T20:00:05.046Z,53.50
2019-03-13T20:02:35.963Z,53.60
2019-03-13T20:05:07.143Z,53.40
2019-03-13T20:07:38.010Z,54.10
2019-03-13T20:10:11.925Z,54.90
2019-03-13T20:12:42.630Z,54.80
2019-03-13T20:15:15.347Z,55.50
2019-03-13T20:17:46.323Z,55.80
2019-03-13T20:20:19.108Z,56.70
2019-03-13T20:22:52.316Z,57.10
2019-03-13T20:25:23.469Z,57.30
2019-03-13T20:27:54.981Z,57.40
2019-03-13T20:30:26.942Z,57.30
2019-03-13T20:33:02.014Z,57.40
2019-03-13T20:35:36.415Z,57.60
2019-03-13T20:38:06.203Z,57.60
2019-03-13T20:40:37.844Z,57.90
2019-03-13T20:43:09.023Z,57.80
2019-03-13T20:45:40.099Z,58.40
2019-03-13T20:48:11.424Z,58.00
2019-03-13T20:50:47.023Z,58.00
2019-03-13T20:53:18.082Z,57.60
2019-03-13T20:55:49.634Z,57.40
2019-03-13T20:58:20.638Z,57.30
2019-03-13T21:00:51.477Z,57.30
2019-03-13T21:03:22.905Z,57.00
2019-03-13T21:05:55.736Z,57.10
2019-03-13T21:08:27.566Z,57.00
2019-03-13T21:11:06.195Z,57.60
2019-03-13T21:13:37.719Z,56.90
2019-03-13T21:16:08.378Z,56.60
2019-03-13T21:18:53.964Z,56.10
2019-03-13T21:21:28.976Z,55.80
2019-03-13T21:23:59.927Z,55.90
2019-03-13T21:26:34.153Z,55.70
2019-03-13T21:29:07.977Z,53.90
2019-03-13T21:31:42.916Z,52.50
2019-03-13T21:34:19.270Z,53.10
2019-03-13T21:36:51.002Z,55.10
2019-03-13T21:39:27.860Z,53.60
2019-03-13T21:42:00.520Z,53.00
2019-03-13T21:44:31.833Z,51.90
2019-03-13T21:47:11.669Z,51.70
2019-03-13T21:49:47.405Z,51.70
2019-03-13T21:52:18.806Z,51.30
2019-03-13T21:54:51.995Z,51.00
2019-03-13T21:57:26.237Z,51.50
2019-03-13T21:59:57.384Z,51.20
2019-03-13T22:02:32.500Z,51.70
2019-03-13T22:05:00.357Z,51.60
2019-03-13T22:07:32.304Z,51.50
2019-03-13T22:10:04.510Z,50.50
2019-03-13T22:12:35.811Z,50.90
2019-03-13T22:15:06.682Z,51.10
2019-03-13T22:17:37.445Z,51.10
2019-03-13T22:20:11.226Z,50.80
2019-03-13T22:22:42.419Z,51.00
2019-03-13T22:25:13.742Z,53.70
2019-03-13T22:27:44.575Z,54.40
2019-03-13T22:30:22.066Z,56.80
2019-03-13T22:32:52.761Z,57.70
2019-03-13T22:35:24.874Z,59.00
2019-03-13T22:37:55.495Z,58.80
2019-03-13T22:40:26.106Z,59.80
2019-03-13T22:42:59.599Z,60.00
2019-03-13T22:45:30.133Z,61.00
2019-03-13T22:48:01.716Z,61.50
2019-03-13T22:50:32.849Z,62.30
2019-03-13T22:53:03.452Z,62.80
2019-03-13T22:55:34.063Z,63.30
2019-03-13T22:58:05.014Z,64.50
2019-03-13T23:00:56.004Z,63.90
2019-03-13T23:03:28.753Z,64.50
2019-03-13T23:05:59.998Z,64.50
2019-03-13T23:08:31.256Z,64.70
2019-03-13T23:11:02.030Z,63.70
2019-03-13T23:13:34.022Z,66.20
2019-03-13T23:16:04.541Z,67.30
2019-03-13T23:18:35.626Z,66.90
2019-03-13T23:21:06.226Z,67.60
2019-03-13T23:23:36.741Z,67.00
2019-03-13T23:26:07.896Z,68.00
2019-03-13T23:28:38.734Z,64.70
2019-03-13T23:31:09.652Z,64.90
2019-03-13T23:33:40.251Z,65.00
2019-03-13T23:36:11.122Z,63.20
2019-03-13T23:38:41.705Z,63.80
2019-03-13T23:41:12.724Z,62.70
2019-03-13T23:43:43.591Z,62.80
2019-03-13T23:46:15.220Z,63.40
2019-03-13T23:48:45.884Z,63.40
2019-03-13T23:51:16.511Z,62.90
2019-03-13T23:53:47.539Z,62.00
2019-03-13T23:56:18.095Z,61.70
2019-03-13T23:58:48.685Z,62.50
